Time;durP1;ratioP1;P1;durP2;ratioP2;P2;SDS_P1;SDS_P2;PMS_P1;PMS_P2;Temp;Humidity;BMP_temperature;BMP_pressure;BME280_temperature;BME280_humidity;BME280_pressure;Samples;Min_cycle;Max_cycle;Signal;HPM_P1;HPM_P2
2023/10/28 00:01:59;;;;;;;;;;;;;;;8.47;99.99;98435.48;107467;277;115379;-56
2023/10/28 00:04:31;;;;;;;;;;;;;;;8.50;100.00;98441.35;107526;277;96091;-56
2023/10/28 00:07:06;;;;;;;;;;;;;;;8.48;99.98;98444.63;107560;277;96815;-56
2023/10/28 00:09:48;;;;;;;;;;;;;;;8.49;100.00;98446.20;107488;277;121176;-53
2023/10/28 00:12:24;;;;;;;;;;;;;;;8.44;99.98;98447.49;107566;277;103941;-57
2023/10/28 00:14:58;;;;;;;;;;;;;;;8.40;100.00;98445.45;107538;277;114368;-57
2023/10/28 00:17:32;;;;;;;;;;;;;;;8.39;99.98;98448.42;107618;277;95941;-53
2023/10/28 00:20:08;;;;;;;;;;;;;;;8.41;99.91;98451.70;107630;277;96609;-53
2023/10/28 00:22:42;;;;;;;;;;;;;;;8.40;99.78;98455.77;107573;277;120177;-54
2023/10/28 00:25:16;;;;;;;;;;;;;;;8.39;99.72;98459.84;107516;277;106250;-54
2023/10/28 00:27:51;;;;;;;;;;;;;;;8.38;99.77;98467.08;107482;277;114747;-54
2023/10/28 00:30:26;;;;;;;;;;;;;;;8.36;99.64;98466.15;107551;277;95830;-53
2023/10/28 00:33:04;;;;;;;;;;;;;;;8.38;99.61;98470.73;107558;277;96825;-53
2023/10/28 00:35:42;;;;;;;;;;;;;;;8.39;99.53;98478.94;107522;277;122321;-53
2023/10/28 00:38:17;;;;;;;;;;;;;;;8.40;99.47;98483.26;107566;277;105814;-53
2023/10/28 00:40:56;;;;;;;;;;;;;;;8.38;99.53;98490.44;107571;277;114242;-53
2023/10/28 00:43:32;;;;;;;;;;;;;;;8.33;99.37;98493.59;107558;277;96397;-55
2023/10/28 00:46:07;;;;;;;;;;;;;;;8.27;99.56;98497.71;107576;277;97341;-54
2023/10/28 00:48:40;;;;;;;;;;;;;;;8.21;99.45;98497.51;107609;277;120632;-52
2023/10/28 00:51:16;;;;;;;;;;;;;;;8.20;99.44;98500.73;107595;277;105956;-53
2023/10/28 00:53:51;;;;;;;;;;;;;;;8.20;99.41;98503.56;107578;277;115112;-52
2023/10/28 00:56:27;;;;;;;;;;;;;;;8.13;99.29;98501.39;107539;277;97031;-53
2023/10/28 00:59:03;;;;;;;;;;;;;;;8.09;99.36;98507.50;107589;277;97250;-56
2023/10/28 01:01:38;;;;;;;;;;;;;;;8.08;99.23;98511.70;107493;277;122514;-55
2023/10/28 01:04:16;;;;;;;;;;;;;;;8.06;99.14;98513.63;107586;277;103197;-53
2023/10/28 01:06:52;;;;;;;;;;;;;;;7.99;99.09;98516.81;107558;277;113367;-53
2023/10/28 01:09:28;;;;;;;;;;;;;;;7.95;99.13;98519.91;107566;277;96765;-56
2023/10/28 01:12:06;;;;;;;;;;;;;;;7.94;98.94;98526.20;107568;277;97893;-55
2023/10/28 01:14:44;;;;;;;;;;;;;;;7.97;98.77;98522.08;107624;277;121506;-56
2023/10/28 01:17:21;;;;;;;;;;;;;;;7.94;98.70;98524.58;107590;277;104803;-56
2023/10/28 01:19:56;;;;;;;;;;;;;;;7.86;98.51;98528.61;107623;277;114890;-56
2023/10/28 01:22:30;;;;;;;;;;;;;;;7.77;98.46;98528.55;107569;277;95058;-56
2023/10/28 01:25:14;;;;;;;;;;;;;;;7.64;98.55;98525.73;107597;277;97613;-57
2023/10/28 01:27:53;;;;;;;;;;;;;;;7.56;98.54;98532.52;107608;277;121807;-56
2023/10/28 01:30:26;;;;;;;;;;;;;;;7.53;98.52;98532.96;107552;277;103563;-56
2023/10/28 01:33:00;;;;;;;;;;;;;;;7.50;98.25;98536.32;107630;277;114500;-54
2023/10/28 01:35:36;;;;;;;;;;;;;;;7.39;98.20;98534.61;107583;277;94323;-54
2023/10/28 01:38:16;;;;;;;;;;;;;;;7.35;98.17;98534.46;107629;277;97614;-54
2023/10/28 01:40:56;;;;;;;;;;;;;;;7.34;98.21;98538.59;107607;277;122787;-54
2023/10/28 01:43:31;;;;;;;;;;;;;;;7.30;98.03;98540.40;107634;277;105687;-53
2023/10/28 01:46:04;;;;;;;;;;;;;;;7.24;98.05;98542.32;107575;277;114751;-55
2023/10/28 01:48:41;;;;;;;;;;;;;;;7.19;97.95;98537.38;107556;277;95808;-57
2023/10/28 01:51:17;;;;;;;;;;;;;;;7.17;97.86;98537.89;107548;277;97820;-57
2023/10/28 01:53:55;;;;;;;;;;;;;;;7.19;98.00;98540.64;107529;277;120667;-53
2023/10/28 01:56:33;;;;;;;;;;;;;;;7.23;97.89;98539.34;107454;277;105150;-53
2023/10/28 01:59:08;;;;;;;;;;;;;;;7.21;97.92;98543.29;107423;277;114088;-55
2023/10/28 02:01:42;;;;;;;;;;;;;;;7.21;97.74;98548.08;107448;277;97405;-55
2023/10/28 02:04:25;;;;;;;;;;;;;;;7.20;97.82;98549.65;107492;277;96669;-55
2023/10/28 02:06:59;;;;;;;;;;;;;;;7.23;97.71;98554.92;107441;277;122094;-56
2023/10/28 02:09:34;;;;;;;;;;;;;;;7.27;97.42;98560.73;107500;277;104880;-57
2023/10/28 02:12:12;;;;;;;;;;;;;;;7.24;97.20;98562.94;107502;277;113254;-58
2023/10/28 02:14:47;;;;;;;;;;;;;;;7.21;97.03;98556.92;107514;277;95374;-53
2023/10/28 02:17:26;;;;;;;;;;;;;;;7.15;97.08;98564.92;107476;277;96862;-55
2023/10/28 02:20:04;;;;;;;;;;;;;;;7.13;97.19;98568.27;107493;277;121932;-56
2023/10/28 02:22:39;;;;;;;;;;;;;;;7.11;96.92;98573.86;107491;277;105850;-54
2023/10/28 02:25:16;;;;;;;;;;;;;;;7.08;97.00;98575.42;107431;277;114776;-54
2023/10/28 02:27:51;;;;;;;;;;;;;;;7.04;96.98;98577.70;107541;277;93630;-57
2023/10/28 02:30:29;;;;;;;;;;;;;;;7.00;96.80;98580.94;107537;277;97334;-57
2023/10/28 02:33:04;;;;;;;;;;;;;;;6.97;96.86;98578.25;107551;277;121811;-53
2023/10/28 02:35:41;;;;;;;;;;;;;;;6.96;96.71;98578.44;107497;277;106025;-54
2023/10/28 02:38:16;;;;;;;;;;;;;;;6.88;96.74;98582.80;107455;277;112399;-56
2023/10/28 02:40:51;;;;;;;;;;;;;;;6.83;96.87;98584.05;107501;277;93150;-56
2023/10/28 02:43:27;;;;;;;;;;;;;;;6.78;96.60;98587.67;107504;277;97290;-57
2023/10/28 02:46:00;;;;;;;;;;;;;;;6.68;96.63;98592.65;107523;277;120850;-57
2023/10/28 02:48:32;;;;;;;;;;;;;;;6.66;96.62;98598.31;107481;277;104815;-53
2023/10/28 02:51:08;;;;;;;;;;;;;;;6.61;96.52;98598.73;107082;277;466848;-53
2023/10/28 02:53:41;;;;;;;;;;;;;;;6.59;96.73;98601.71;107507;277;94631;-56
2023/10/28 02:56:23;;;;;;;;;;;;;;;6.55;96.72;98602.66;107505;277;97904;-56
2023/10/28 02:59:00;;;;;;;;;;;;;;;6.49;96.43;98611.16;107509;277;122054;-54
2023/10/28 03:01:38;;;;;;;;;;;;;;;6.48;96.57;98614.34;107522;277;105410;-54
2023/10/28 03:04:13;;;;;;;;;;;;;;;6.49;96.84;98617.27;107485;277;114292;-58
2023/10/28 03:06:50;;;;;;;;;;;;;;;6.49;96.69;98624.70;107478;277;97505;-58
2023/10/28 03:09:30;;;;;;;;;;;;;;;6.53;96.85;98630.39;107550;277;98076;-54
2023/10/28 03:12:12;;;;;;;;;;;;;;;6.56;96.95;98633.90;107492;277;121122;-54
2023/10/28 03:14:48;;;;;;;;;;;;;;;6.61;97.07;98635.17;107517;277;104521;-58
2023/10/28 03:17:26;;;;;;;;;;;;;;;6.64;96.69;98637.98;107559;277;113591;-58
2023/10/28 03:19:58;;;;;;;;;;;;;;;6.61;96.78;98633.41;107510;277;96711;-56
2023/10/28 03:22:30;;;;;;;;;;;;;;;6.64;96.82;98633.70;107511;277;97635;-54
2023/10/28 03:25:12;;;;;;;;;;;;;;;6.65;96.78;98634.27;107506;277;121509;-54
2023/10/28 03:27:48;;;;;;;;;;;;;;;6.64;96.62;98637.61;107526;277;105822;-57
2023/10/28 03:30:26;;;;;;;;;;;;;;;6.58;96.33;98638.11;107473;277;114521;-57
2023/10/28 03:33:00;;;;;;;;;;;;;;;6.55;96.37;98640.63;107518;277;97209;-57
2023/10/28 03:35:35;;;;;;;;;;;;;;;6.49;96.40;98643.88;107504;277;97146;-57
2023/10/28 03:38:09;;;;;;;;;;;;;;;6.47;96.49;98645.48;107514;277;121145;-53
2023/10/28 03:40:45;;;;;;;;;;;;;;;6.46;96.72;98648.05;107471;277;105811;-54
2023/10/28 03:43:25;;;;;;;;;;;;;;;6.49;96.87;98651.89;107560;277;114980;-57
2023/10/28 03:46:03;;;;;;;;;;;;;;;6.48;97.04;98657.25;107538;277;95719;-58
2023/10/28 03:48:40;;;;;;;;;;;;;;;6.48;96.86;98662.77;107545;277;97233;-54
2023/10/28 03:51:18;;;;;;;;;;;;;;;6.48;96.94;98666.01;107498;277;122435;-55
2023/10/28 03:54:05;;;;;;;;;;;;;;;6.52;96.99;98667.63;107510;277;104673;-56
2023/10/28 03:56:42;;;;;;;;;;;;;;;6.54;96.76;98669.64;107443;277;113991;-56
2023/10/28 03:59:23;;;;;;;;;;;;;;;6.56;96.94;98671.40;107551;277;95544;-53
2023/10/28 04:02:00;;;;;;;;;;;;;;;6.60;96.95;98673.63;107529;277;97438;-56
2023/10/28 04:04:39;;;;;;;;;;;;;;;6.57;96.75;98676.61;107546;277;121025;-54
2023/10/28 04:07:25;;;;;;;;;;;;;;;6.52;96.82;98680.62;107547;277;105466;-53
2023/10/28 04:10:04;;;;;;;;;;;;;;;6.50;96.86;98682.43;107517;277;115099;-52
2023/10/28 04:12:40;;;;;;;;;;;;;;;6.47;96.90;98677.80;107474;277;94001;-53
2023/10/28 04:15:19;;;;;;;;;;;;;;;6.47;96.89;98677.11;107529;277;97085;-53
2023/10/28 04:18:02;;;;;;;;;;;;;;;6.41;96.78;98674.13;107579;277;121731;-53
2023/10/28 04:20:39;;;;;;;;;;;;;;;6.31;96.64;98674.60;107496;277;105740;-53
2023/10/28 04:23:21;;;;;;;;;;;;;;;6.26;96.82;98679.98;107500;277;114995;-53
2023/10/28 04:25:56;;;;;;;;;;;;;;;6.23;96.96;98677.98;107524;277;92880;-54
2023/10/28 04:28:36;;;;;;;;;;;;;;;6.22;97.00;98675.96;107574;277;96356;-53
2023/10/28 04:31:12;;;;;;;;;;;;;;;6.21;97.01;98681.66;107586;277;121921;-54
2023/10/28 04:33:51;;;;;;;;;;;;;;;6.18;96.99;98682.25;107559;277;105702;-54
2023/10/28 04:36:30;;;;;;;;;;;;;;;6.14;96.82;98691.08;107492;277;112751;-53
2023/10/28 04:39:09;;;;;;;;;;;;;;;6.12;96.95;98694.04;107553;277;92967;-55
2023/10/28 04:41:51;;;;;;;;;;;;;;;6.09;97.15;98691.34;107533;277;97705;-56
2023/10/28 04:44:25;;;;;;;;;;;;;;;6.09;97.26;98692.43;107547;277;122728;-57
2023/10/28 04:47:02;;;;;;;;;;;;;;;6.08;97.21;98696.67;107582;277;105474;-57
2023/10/28 04:49:39;;;;;;;;;;;;;;;6.03;97.24;98699.13;107545;277;115163;-54
2023/10/28 04:52:17;;;;;;;;;;;;;;;6.05;97.45;98702.68;107590;277;94537;-53
2023/10/28 04:54:53;;;;;;;;;;;;;;;6.08;97.42;98715.14;107554;277;98729;-57
2023/10/28 04:57:33;;;;;;;;;;;;;;;6.08;97.47;98721.66;107583;277;121999;-55
2023/10/28 05:00:13;;;;;;;;;;;;;;;6.10;97.47;98721.84;107527;277;104535;-54
2023/10/28 05:02:48;;;;;;;;;;;;;;;6.16;97.63;98725.14;107509;277;113575;-53
2023/10/28 05:05:30;;;;;;;;;;;;;;;6.20;97.45;98728.83;107565;277;94442;-57
2023/10/28 05:08:04;;;;;;;;;;;;;;;6.20;97.62;98733.33;107635;277;97600;-54
2023/10/28 05:10:42;;;;;;;;;;;;;;;6.23;97.75;98734.86;107601;277;119952;-53
2023/10/28 05:13:22;;;;;;;;;;;;;;;6.28;97.84;98740.32;107574;277;104032;-56
2023/10/28 05:15:58;;;;;;;;;;;;;;;6.30;97.95;98743.74;107588;277;115688;-56
2023/10/28 05:18:33;;;;;;;;;;;;;;;6.32;97.83;98748.25;107584;277;96848;-57
2023/10/28 05:21:15;;;;;;;;;;;;;;;6.37;97.62;98751.77;107560;277;96498;-57
2023/10/28 05:23:56;;;;;;;;;;;;;;;6.33;97.57;98754.81;107597;277;122194;-57
2023/10/28 05:26:37;;;;;;;;;;;;;;;6.37;97.67;98760.52;107599;277;103978;-54
2023/10/28 05:29:17;;;;;;;;;;;;;;;6.41;97.82;98764.23;107553;277;114731;-56
2023/10/28 05:35:03;;;;;;;;;;;;;;;6.49;97.65;98772.80;107563;277;97704;-56
2023/10/28 05:37:40;;;;;;;;;;;;;;;6.51;97.73;98775.08;107592;277;120753;-53
2023/10/28 05:40:21;;;;;;;;;;;;;;;6.53;97.72;98780.33;107639;277;104545;-53
2023/10/28 05:42:56;;;;;;;;;;;;;;;6.55;97.64;98778.46;107593;277;114857;-53
2023/10/28 05:45:30;;;;;;;;;;;;;;;6.58;97.60;98783.15;107569;277;96754;-56
2023/10/28 05:48:03;;;;;;;;;;;;;;;6.62;97.52;98785.20;107643;277;97882;-53
2023/10/28 05:50:38;;;;;;;;;;;;;;;6.63;97.71;98785.16;107547;277;121509;-53
2023/10/28 05:53:13;;;;;;;;;;;;;;;6.60;97.65;98787.19;107514;277;106226;-57
2023/10/28 05:55:46;;;;;;;;;;;;;;;6.58;97.67;98787.02;107447;277;114177;-58
2023/10/28 05:58:20;;;;;;;;;;;;;;;6.60;97.83;98790.21;107488;277;94562;-52
2023/10/28 06:00:59;;;;;;;;;;;;;;;6.58;97.75;98791.84;107476;277;97266;-53
2023/10/28 06:03:35;;;;;;;;;;;;;;;6.56;97.82;98798.52;107508;277;120885;-58
2023/10/28 06:06:14;;;;;;;;;;;;;;;6.55;97.80;98799.48;107568;277;106020;-58
2023/10/28 06:08:50;;;;;;;;;;;;;;;6.56;98.08;98798.45;107505;277;112934;-57
2023/10/28 06:11:22;;;;;;;;;;;;;;;6.55;97.97;98803.54;107520;277;93209;-58
2023/10/28 06:14:03;;;;;;;;;;;;;;;6.51;97.91;98807.76;107504;277;97275;-57
2023/10/28 06:16:38;;;;;;;;;;;;;;;6.51;97.91;98811.92;107518;277;121309;-57
2023/10/28 06:19:12;;;;;;;;;;;;;;;6.52;98.08;98817.00;107525;277;104585;-57
2023/10/28 06:21:49;;;;;;;;;;;;;;;6.55;98.15;98827.34;107495;277;114523;-58
2023/10/28 06:24:25;;;;;;;;;;;;;;;6.63;98.14;98835.36;107511;277;95695;-54
2023/10/28 06:27:04;;;;;;;;;;;;;;;6.70;98.40;98833.61;107508;277;97352;-54
2023/10/28 06:29:38;;;;;;;;;;;;;;;6.76;98.55;98839.23;107504;277;121704;-58
2023/10/28 06:32:11;;;;;;;;;;;;;;;6.82;98.54;98840.66;107533;277;104045;-58
2023/10/28 06:34:47;;;;;;;;;;;;;;;6.86;98.55;98841.56;107399;277;113579;-54
2023/10/28 06:37:21;;;;;;;;;;;;;;;6.92;98.59;98846.16;107522;277;95597;-55
2023/10/28 06:40:03;;;;;;;;;;;;;;;7.00;98.55;98850.17;107508;277;95997;-54
2023/10/28 06:42:41;;;;;;;;;;;;;;;7.09;98.69;98848.38;107520;277;122321;-54
2023/10/28 06:45:15;;;;;;;;;;;;;;;7.15;98.82;98850.86;107488;277;104669;-53
2023/10/28 06:47:55;;;;;;;;;;;;;;;7.24;98.66;98852.60;107455;277;113123;-54
2023/10/28 06:50:32;;;;;;;;;;;;;;;7.39;98.70;98855.38;107448;277;96552;-53
2023/10/28 06:53:10;;;;;;;;;;;;;;;7.53;98.51;98863.27;107513;277;98399;-56
2023/10/28 06:55:48;;;;;;;;;;;;;;;7.58;98.30;98862.31;107480;277;121852;-56
2023/10/28 06:58:27;;;;;;;;;;;;;;;7.73;98.24;98870.37;107510;277;106093;-55
2023/10/28 07:01:02;;;;;;;;;;;;;;;7.89;98.26;98873.45;107464;277;113780;-54
2023/10/28 07:03:40;;;;;;;;;;;;;;;8.10;98.38;98874.98;107538;277;96916;-53
2023/10/28 07:06:18;;;;;;;;;;;;;;;8.32;98.36;98877.26;107490;277;96370;-53
2023/10/28 07:08:52;;;;;;;;;;;;;;;8.53;97.99;98882.05;107499;277;121374;-57
2023/10/28 07:11:25;;;;;;;;;;;;;;;8.75;97.81;98879.04;107513;277;105878;-58
2023/10/28 07:14:02;;;;;;;;;;;;;;;9.04;97.25;98875.36;107507;277;114076;-58
2023/10/28 07:16:42;;;;;;;;;;;;;;;9.55;96.93;98876.64;107518;277;93901;-58
2023/10/28 07:19:15;;;;;;;;;;;;;;;10.20;96.07;98874.56;107560;277;97987;-56
2023/10/28 07:21:51;;;;;;;;;;;;;;;10.19;95.43;98873.67;107508;277;121841;-56
2023/10/28 07:24:27;;;;;;;;;;;;;;;9.98;95.23;98878.70;107532;277;105703;-55
2023/10/28 07:27:05;;;;;;;;;;;;;;;9.98;94.72;98880.91;107517;277;114596;-55
2023/10/28 07:29:39;;;;;;;;;;;;;;;10.09;94.37;98881.73;107470;277;92090;-53
2023/10/28 07:32:13;;;;;;;;;;;;;;;10.52;94.26;98888.20;107509;277;97699;-53
2023/10/28 07:34:48;;;;;;;;;;;;;;;10.31;93.09;98890.48;107547;277;122221;-54
2023/10/28 07:37:27;;;;;;;;;;;;;;;10.06;92.60;98895.98;107544;277;104720;-56
2023/10/28 07:40:05;;;;;;;;;;;;;;;9.86;92.33;98900.69;107508;277;114323;-57
2023/10/28 07:42:38;;;;;;;;;;;;;;;9.69;91.86;98902.05;107514;277;94493;-53
2023/10/28 07:45:14;;;;;;;;;;;;;;;9.54;91.51;98904.19;107517;277;96609;-53
2023/10/28 07:47:46;;;;;;;;;;;;;;;9.40;91.22;98908.86;107494;277;122527;-54
2023/10/28 07:50:20;;;;;;;;;;;;;;;9.30;91.14;98914.23;107522;277;104425;-53
2023/10/28 07:52:52;;;;;;;;;;;;;;;9.23;90.96;98917.56;107529;277;114239;-57
2023/10/28 07:55:31;;;;;;;;;;;;;;;9.24;90.76;98921.16;107526;277;93714;-57
2023/10/28 07:58:04;;;;;;;;;;;;;;;9.32;90.81;98918.41;107515;277;97973;-62
2023/10/28 08:00:39;;;;;;;;;;;;;;;9.38;90.93;98918.95;107526;277;121567;-55
2023/10/28 08:03:20;;;;;;;;;;;;;;;9.37;90.90;98919.86;107505;277;105437;-56
2023/10/28 08:05:52;;;;;;;;;;;;;;;9.45;90.77;98926.54;107493;277;113617;-56
2023/10/28 08:08:26;;;;;;;;;;;;;;;9.56;90.95;98929.89;107541;277;97040;-56
2023/10/28 08:11:12;;;;;;;;;;;;;;;9.65;90.66;98939.00;107478;278;96387;-58
2023/10/28 08:13:59;;;;;;;;;;;;;;;9.82;90.84;98942.75;107528;277;120195;-54
2023/10/28 08:16:34;;;;;;;;;;;;;;;9.96;90.84;98950.45;107493;277;104449;-54
2023/10/28 08:19:12;;;;;;;;;;;;;;;10.04;90.00;98955.02;107539;277;113445;-53
2023/10/28 08:21:48;;;;;;;;;;;;;;;9.99;89.77;98956.06;107520;277;94528;-53
2023/10/28 08:24:24;;;;;;;;;;;;;;;10.04;89.60;98960.04;107530;277;97334;-58
2023/10/28 08:27:00;;;;;;;;;;;;;;;10.04;89.45;98966.73;107576;277;120491;-57
2023/10/28 08:29:36;;;;;;;;;;;;;;;9.99;89.49;98968.56;107554;277;105699;-53
2023/10/28 08:32:10;;;;;;;;;;;;;;;9.97;89.27;98970.30;107558;277;114683;-53
2023/10/28 08:34:49;;;;;;;;;;;;;;;9.92;89.33;98969.89;107575;277;94985;-58
2023/10/28 08:37:26;;;;;;;;;;;;;;;9.82;89.42;98971.76;107586;277;97628;-55
2023/10/28 08:40:04;;;;;;;;;;;;;;;9.73;89.22;98970.92;107566;277;122045;-57
2023/10/28 08:42:39;;;;;;;;;;;;;;;9.69;89.05;98978.23;107611;277;104966;-55
2023/10/28 08:45:14;;;;;;;;;;;;;;;9.65;88.77;98983.80;107520;277;114534;-54
2023/10/28 08:47:48;;;;;;;;;;;;;;;9.56;88.40;98988.63;107573;277;94978;-56
2023/10/28 08:50:25;;;;;;;;;;;;;;;9.56;88.38;98989.86;107539;277;97667;-56
2023/10/28 08:53:03;;;;;;;;;;;;;;;9.49;88.48;98993.18;107606;277;121115;-53
2023/10/28 08:55:39;;;;;;;;;;;;;;;9.56;88.72;99002.80;107450;277;106166;-53
2023/10/28 08:58:13;;;;;;;;;;;;;;;9.61;88.80;99005.52;107608;277;113826;-59
2023/10/28 09:00:51;;;;;;;;;;;;;;;9.57;88.54;99006.33;107607;277;96819;-57
2023/10/28 09:03:26;;;;;;;;;;;;;;;9.60;88.55;99011.57;107597;277;97465;-56
2023/10/28 09:06:03;;;;;;;;;;;;;;;9.60;88.55;99016.63;107550;277;122133;-56
2023/10/28 09:08:38;;;;;;;;;;;;;;;9.62;88.60;99017.41;107558;277;105104;-54
2023/10/28 09:11:19;;;;;;;;;;;;;;;9.64;88.76;99016.81;107475;277;115351;-54
2023/10/28 09:13:56;;;;;;;;;;;;;;;9.66;88.24;99017.59;107585;277;97145;-57
2023/10/28 09:16:43;;;;;;;;;;;;;;;9.76;88.47;99010.94;107618;277;97975;-57
2023/10/28 09:19:22;;;;;;;;;;;;;;;9.85;88.33;99014.93;107559;277;122759;-56
2023/10/28 09:21:56;;;;;;;;;;;;;;;9.98;88.52;99017.08;107615;277;103004;-54
2023/10/28 09:24:33;;;;;;;;;;;;;;;10.02;88.21;99020.13;107623;277;113821;-58
2023/10/28 09:27:13;;;;;;;;;;;;;;;10.02;88.07;99023.70;107546;277;94144;-58
2023/10/28 09:29:47;;;;;;;;;;;;;;;10.03;88.07;99023.02;107629;277;97793;-56
2023/10/28 09:32:26;;;;;;;;;;;;;;;10.12;88.06;99023.49;107582;277;121398;-54
2023/10/28 09:35:05;;;;;;;;;;;;;;;10.21;87.86;99029.25;107486;277;107999;-54
2023/10/28 09:37:42;;;;;;;;;;;;;;;10.18;87.87;99028.83;107619;277;115548;-54
2023/10/28 09:40:17;;;;;;;;;;;;;;;10.20;87.57;99032.55;107566;277;94454;-53
2023/10/28 09:42:53;;;;;;;;;;;;;;;10.16;87.71;99033.07;107670;277;95626;-55
2023/10/28 09:45:31;;;;;;;;;;;;;;;10.29;87.84;99035.79;107466;277;122036;-58
2023/10/28 09:48:13;;;;;;;;;;;;;;;10.41;87.83;99034.30;107591;277;105459;-53
2023/10/28 09:50:52;;;;;;;;;;;;;;;10.59;87.58;99034.21;107572;277;114789;-54
2023/10/28 09:53:33;;;;;;;;;;;;;;;10.72;87.09;99031.95;107575;277;94540;-54
2023/10/28 09:56:07;;;;;;;;;;;;;;;10.83;86.93;99034.02;107480;277;97453;-55
2023/10/28 09:58:43;;;;;;;;;;;;;;;10.92;86.45;99040.73;107489;277;120623;-57
2023/10/28 10:01:24;;;;;;;;;;;;;;;11.06;86.46;99042.67;107448;277;105526;-57
2023/10/28 10:04:12;;;;;;;;;;;;;;;11.16;86.05;99045.66;107518;277;113989;-54
2023/10/28 10:06:46;;;;;;;;;;;;;;;11.13;85.75;99046.98;107419;277;96034;-54
2023/10/28 10:09:21;;;;;;;;;;;;;;;11.13;85.80;99048.33;107542;277;97081;-54
2023/10/28 10:11:59;;;;;;;;;;;;;;;11.08;85.59;99049.41;107497;277;121350;-56
2023/10/28 10:14:39;;;;;;;;;;;;;;;11.25;85.56;99052.58;107462;277;103724;-54
2023/10/28 10:17:22;;;;;;;;;;;;;;;11.31;85.25;99052.84;107458;277;115969;-53
2023/10/28 10:20:04;;;;;;;;;;;;;;;11.45;85.47;99048.89;107424;277;94041;-57
2023/10/28 10:22:39;;;;;;;;;;;;;;;11.53;84.77;99052.18;107544;277;97701;-54
2023/10/28 10:25:20;;;;;;;;;;;;;;;11.65;84.71;99056.69;107462;277;121575;-53
2023/10/28 10:28:06;;;;;;;;;;;;;;;11.64;84.29;99049.58;107495;277;106000;-54
2023/10/28 10:30:46;;;;;;;;;;;;;;;11.71;83.89;99054.58;107493;277;114098;-54
2023/10/28 10:33:31;;;;;;;;;;;;;;;11.72;83.55;99054.28;107509;277;94868;-57
2023/10/28 10:36:09;;;;;;;;;;;;;;;11.76;83.78;99054.26;107428;277;100078;-57
2023/10/28 10:38:43;;;;;;;;;;;;;;;11.84;83.77;99062.04;107532;277;122066;-58
2023/10/28 10:41:30;;;;;;;;;;;;;;;11.81;83.72;99064.72;107510;277;105349;-58
2023/10/28 10:44:33;;;;;;;;;;;;;;;11.66;83.17;99070.66;107423;277;115367;-53
2023/10/28 10:47:12;;;;;;;;;;;;;;;11.41;83.14;99069.52;107461;277;93994;-54
2023/10/28 10:49:49;;;;;;;;;;;;;;;11.20;82.80;99069.58;107077;277;518152;-55
2023/10/28 10:52:30;;;;;;;;;;;;;;;11.07;83.13;99063.35;107500;277;121771;-56
2023/10/28 10:55:07;;;;;;;;;;;;;;;10.98;83.12;99060.20;107533;277;104587;-58
2023/10/28 10:57:45;;;;;;;;;;;;;;;10.91;83.53;99059.71;107529;277;113811;-55
2023/10/28 11:00:21;;;;;;;;;;;;;;;10.90;83.51;99068.11;107473;277;94216;-54
2023/10/28 11:02:57;;;;;;;;;;;;;;;10.82;83.56;99069.33;107513;277;98487;-54
2023/10/28 11:05:32;;;;;;;;;;;;;;;10.79;83.30;99067.07;107499;277;121339;-60
2023/10/28 11:08:09;;;;;;;;;;;;;;;10.78;83.23;99066.11;107488;277;105888;-57
2023/10/28 11:10:46;;;;;;;;;;;;;;;10.88;83.47;99067.02;107448;277;117010;-57
2023/10/28 11:13:27;;;;;;;;;;;;;;;10.85;83.61;99072.95;107520;277;95318;-59
2023/10/28 11:16:04;;;;;;;;;;;;;;;10.80;83.38;99071.50;107481;277;96807;-59
2023/10/28 11:18:40;;;;;;;;;;;;;;;10.82;83.52;99070.52;107571;277;121624;-64
2023/10/28 11:21:16;;;;;;;;;;;;;;;10.87;83.63;99072.52;107562;277;105906;-58
2023/10/28 11:23:53;;;;;;;;;;;;;;;10.94;83.71;99073.77;107594;277;113374;-53
2023/10/28 11:26:34;;;;;;;;;;;;;;;10.98;83.71;99073.88;107511;277;92430;-54
2023/10/28 11:29:12;;;;;;;;;;;;;;;10.98;83.26;99073.56;107503;277;97965;-54
2023/10/28 11:31:46;;;;;;;;;;;;;;;10.95;83.10;99074.01;107477;278;122003;-54
2023/10/28 11:34:22;;;;;;;;;;;;;;;10.91;83.13;99075.09;107512;277;104121;-56
2023/10/28 11:37:00;;;;;;;;;;;;;;;10.97;83.15;99073.15;107477;277;113266;-55
2023/10/28 11:39:34;;;;;;;;;;;;;;;10.96;83.27;99073.77;107496;277;94092;-53
2023/10/28 11:42:17;;;;;;;;;;;;;;;10.96;82.80;99076.95;107513;277;96051;-53
2023/10/28 11:44:57;;;;;;;;;;;;;;;10.88;82.83;99078.98;107565;277;119794;-54
2023/10/28 11:47:38;;;;;;;;;;;;;;;10.75;82.85;99079.86;107558;277;106397;-54
2023/10/28 11:50:11;;;;;;;;;;;;;;;10.78;83.50;99081.95;107513;277;113704;-54
2023/10/28 11:52:47;;;;;;;;;;;;;;;10.81;83.83;99081.14;107596;277;92483;-57
2023/10/28 11:55:20;;;;;;;;;;;;;;;10.83;83.54;99076.29;107535;277;98166;-57
2023/10/28 11:57:56;;;;;;;;;;;;;;;10.96;83.71;99083.69;107473;277;120657;-58
2023/10/28 12:00:32;;;;;;;;;;;;;;;11.07;83.83;99086.31;107509;277;103990;-57
2023/10/28 12:03:08;;;;;;;;;;;;;;;11.08;83.55;99080.72;107567;277;112867;-57
2023/10/28 12:05:48;;;;;;;;;;;;;;;11.20;83.31;99085.74;107524;277;95479;-58
2023/10/28 12:08:22;;;;;;;;;;;;;;;11.30;83.15;99086.88;107555;277;96852;-58
2023/10/28 12:10:58;;;;;;;;;;;;;;;11.35;83.20;99087.94;107569;277;120463;-58
2023/10/28 12:13:34;;;;;;;;;;;;;;;11.42;82.76;99090.16;107531;277;106696;-58
2023/10/28 12:16:09;;;;;;;;;;;;;;;11.46;82.65;99100.04;107559;277;114410;-56
2023/10/28 12:18:41;;;;;;;;;;;;;;;11.47;82.15;99102.86;107562;277;95690;-56
2023/10/28 12:21:15;;;;;;;;;;;;;;;11.42;82.07;99103.61;107546;277;97256;-57
2023/10/28 12:23:51;;;;;;;;;;;;;;;11.29;82.32;99101.61;107528;277;121288;-53
2023/10/28 12:26:27;;;;;;;;;;;;;;;11.22;82.54;99103.86;107471;277;105795;-53
2023/10/28 12:29:03;;;;;;;;;;;;;;;11.17;82.41;99104.73;107547;277;114588;-56
2023/10/28 12:31:37;;;;;;;;;;;;;;;10.97;82.06;99106.36;107559;277;94727;-55
2023/10/28 12:34:11;;;;;;;;;;;;;;;10.83;82.42;99109.26;107578;277;97021;-54
2023/10/28 12:36:51;;;;;;;;;;;;;;;10.84;82.60;99109.04;107600;277;121559;-54
2023/10/28 12:39:34;;;;;;;;;;;;;;;10.86;82.47;99111.42;107528;277;105245;-55
2023/10/28 12:42:15;;;;;;;;;;;;;;;10.83;83.01;99115.82;107580;277;114876;-54
2023/10/28 12:44:50;;;;;;;;;;;;;;;10.78;83.30;99116.81;107581;277;93975;-54
2023/10/28 12:47:23;;;;;;;;;;;;;;;10.75;83.06;99119.30;107623;277;96950;-54
2023/10/28 12:50:05;;;;;;;;;;;;;;;10.71;82.98;99125.70;107628;277;120261;-53
2023/10/28 12:52:42;;;;;;;;;;;;;;;10.68;83.39;99127.92;107682;277;105864;-57
2023/10/28 12:55:20;;;;;;;;;;;;;;;10.64;83.32;99130.40;107570;277;114631;-56
2023/10/28 12:57:54;;;;;;;;;;;;;;;10.58;83.27;99131.98;107620;277;93744;-57
2023/10/28 13:00:27;;;;;;;;;;;;;;;10.48;83.56;99137.42;107643;277;95777;-57
2023/10/28 13:03:04;;;;;;;;;;;;;;;10.43;83.75;99145.69;107644;277;122777;-56
2023/10/28 13:05:43;;;;;;;;;;;;;;;10.36;83.97;99148.19;107439;277;105074;-55
2023/10/28 13:08:23;;;;;;;;;;;;;;;10.31;84.22;99146.56;107526;277;114812;-56
2023/10/28 13:10:56;;;;;;;;;;;;;;;10.31;84.48;99150.60;107580;277;96061;-55
2023/10/28 13:13:31;;;;;;;;;;;;;;;10.28;84.69;99150.27;107621;277;96049;-53
2023/10/28 13:16:04;;;;;;;;;;;;;;;10.28;84.76;99150.65;107570;277;119588;-53
2023/10/28 13:18:37;;;;;;;;;;;;;;;10.19;85.15;99151.70;107578;277;106431;-53
2023/10/28 13:21:18;;;;;;;;;;;;;;;10.13;85.59;99152.91;107597;277;113977;-52
2023/10/28 13:23:59;;;;;;;;;;;;;;;10.04;85.72;99156.21;107420;277;95966;-53
2023/10/28 13:26:34;;;;;;;;;;;;;;;9.92;86.01;99157.27;107469;277;98162;-52
2023/10/28 13:29:09;;;;;;;;;;;;;;;9.84;86.38;99161.45;107616;277;121827;-57
2023/10/28 13:31:47;;;;;;;;;;;;;;;9.75;86.64;99160.05;107551;277;104309;-56
2023/10/28 13:34:24;;;;;;;;;;;;;;;9.76;87.13;99161.36;107642;277;114022;-58
2023/10/28 13:36:58;;;;;;;;;;;;;;;9.74;87.39;99159.89;107621;277;93385;-55
2023/10/28 13:39:33;;;;;;;;;;;;;;;9.73;87.36;99161.75;107698;277;97222;-58
2023/10/28 13:42:09;;;;;;;;;;;;;;;9.67;87.46;99163.08;107665;277;121930;-58